Terminal Aerodrome Forecast
Issued by NWS

Home | Current Version | Previous Version | Text Only | Print | Product List | Glossary Off
Versions: 1 2 3 4 5 6 7 8 9 10 11

958
FTUS43 KAPX 241720
TAFTVC
TAF
KTVC 241720Z 2418/2518 VRB05KT P6SM SCT250
     FM250000 14007KT P6SM SCT250 WS015/15035KT
     FM251200 15008KT P6SM BKN100 WS015/17035KT=

USA.gov is the U.S. government's official web portal to all federal, state and local government web resources and services.